Time;durP1;ratioP1;P1;durP2;ratioP2;P2;SDS_P1;SDS_P2;PMS_P1;PMS_P2;Temp;Humidity;BMP_temperature;BMP_pressure;BME280_temperature;BME280_humidity;BME280_pressure;Samples;Min_cycle;Max_cycle;Signal;HPM_P1;HPM_P2
2023/06/12 00:02:13;;;;;;;7.25;4.93;;;;;;;19.16;51.21;100970.50;5038868;28;20639;-66
2023/06/12 00:04:39;;;;;;;7.15;4.78;;;;;;;19.13;51.22;100980.25;5039266;28;20051;-66
2023/06/12 00:07:05;;;;;;;5.25;4.07;;;;;;;19.10;51.53;100975.13;5034874;28;20033;-66
2023/06/12 00:09:32;;;;;;;5.82;4.25;;;;;;;19.04;51.72;100978.84;5040324;28;20044;-66
2023/06/12 00:11:58;;;;;;;7.55;4.10;;;;;;;18.98;51.73;100984.31;5048356;28;20037;-66
2023/06/12 00:14:23;;;;;;;5.63;4.20;;;;;;;18.94;51.93;100980.09;5038717;28;20115;-66
2023/06/12 00:16:48;;;;;;;6.38;4.10;;;;;;;18.88;52.13;100991.69;5037148;28;20116;-66
2023/06/12 00:19:14;;;;;;;7.15;4.30;;;;;;;18.84;52.70;100991.84;5040923;28;20111;-65
2023/06/12 00:21:39;;;;;;;6.63;5.15;;;;;;;18.83;52.89;100998.84;5044566;28;20029;-66
2023/06/12 00:24:08;;;;;;;7.05;4.63;;;;;;;18.78;53.36;101000.78;5035991;28;20525;-66
2023/06/12 00:26:34;;;;;;;8.88;5.22;;;;;;;18.64;54.81;101008.28;5032341;28;20640;-66
2023/06/12 00:29:00;;;;;;;7.15;4.65;;;;;;;18.53;54.84;100997.38;5041179;28;20151;-66
2023/06/12 00:31:25;;;;;;;8.25;5.30;;;;;;;18.43;55.66;101006.50;5041113;28;20098;-66
2023/06/12 00:33:50;;;;;;;7.50;5.05;;;;;;;18.33;56.44;101007.72;5022845;28;20040;-66
2023/06/12 00:36:16;;;;;;;9.43;5.10;;;;;;;18.26;56.80;101006.22;5040540;28;20041;-66
2023/06/12 00:38:41;;;;;;;6.85;5.20;;;;;;;18.17;56.94;101004.81;5039194;28;20037;-66
2023/06/12 00:41:07;;;;;;;8.75;4.70;;;;;;;18.12;57.49;101008.50;5039534;28;20570;-66
2023/06/12 00:43:33;;;;;;;7.88;5.32;;;;;;;18.05;57.93;101007.03;5020105;28;20794;-66
2023/06/12 00:45:59;;;;;;;6.10;4.88;;;;;;;18.01;58.17;101006.28;5039167;28;20835;-66
2023/06/12 00:48:25;;;;;;;7.47;5.28;;;;;;;17.95;58.45;101009.97;5034040;28;20052;-66
2023/06/12 00:50:52;;;;;;;6.90;5.13;;;;;;;17.93;58.55;101003.91;5032107;28;20057;-66
2023/06/12 00:53:18;;;;;;;8.52;5.43;;;;;;;17.89;58.42;100999.72;5037673;28;20486;-66
2023/06/12 00:55:44;;;;;;;8.30;5.75;;;;;;;17.84;59.52;101004.22;5040642;28;20049;-66
2023/06/12 00:58:10;;;;;;;9.73;5.20;;;;;;;17.78;59.80;100996.56;5040188;28;20494;-67
2023/06/12 01:00:38;;;;;;;6.80;5.22;;;;;;;17.78;59.66;100999.16;5039988;28;20041;-66
2023/06/12 01:03:07;;;;;;;6.38;4.72;;;;;;;17.76;59.90;100997.50;5038904;28;20048;-66
2023/06/12 01:05:36;;;;;;;6.85;5.35;;;;;;;17.75;59.45;100999.28;5031891;28;20502;-66
2023/06/12 01:08:16;;;;;;;6.65;5.50;;;;;;;17.81;59.12;100993.00;5034488;28;20785;-66
2023/06/12 01:10:51;;;;;;;7.75;4.88;;;;;;;17.88;58.39;100982.31;5017673;28;20850;-66
2023/06/12 01:13:21;;;;;;;7.20;5.07;;;;;;;17.97;58.95;100979.38;5036634;28;20121;-66
2023/06/12 01:15:47;;;;;;;9.35;5.35;;;;;;;18.02;59.72;100988.81;5033626;28;20505;-66
2023/06/12 01:18:12;;;;;;;7.80;5.43;;;;;;;18.06;60.92;100993.88;5034899;28;20084;-66
2023/06/12 01:20:40;;;;;;;6.25;5.05;;;;;;;18.08;60.78;100984.19;5033111;28;20036;-66
2023/06/12 01:23:09;;;;;;;7.22;5.30;;;;;;;18.07;60.45;100977.28;5032172;28;20458;-66
2023/06/12 01:25:46;;;;;;;7.38;5.13;;;;;;;17.96;60.22;100969.78;5032434;28;20060;-66
2023/06/12 01:28:51;;;;;;;10.57;5.43;;;;;;;17.84;60.40;100975.44;5037784;28;20148;-66
2023/06/12 01:31:43;;;;;;;6.90;4.50;;;;;;;17.76;60.50;100968.75;5034131;28;20068;-66
2023/06/12 01:34:20;;;;;;;7.88;5.10;;;;;;;17.68;60.12;100963.81;5031345;28;20049;-66
2023/06/12 01:36:55;;;;;;;7.78;4.70;;;;;;;17.64;59.83;100959.56;5032505;28;20653;-67
2023/06/12 01:39:23;;;;;;;7.10;4.63;;;;;;;17.62;59.41;100960.53;5031261;28;20099;-66
2023/06/12 01:41:50;;;;;;;7.15;4.75;;;;;;;17.62;59.05;100952.69;5036256;28;20042;-66
2023/06/12 01:44:16;;;;;;;8.05;5.03;;;;;;;17.59;59.23;100948.44;5035666;28;20106;-66
2023/06/12 01:46:42;;;;;;;5.68;4.53;;;;;;;17.59;58.94;100945.81;5035239;28;20094;-66
2023/06/12 01:49:08;;;;;;;5.88;4.30;;;;;;;17.58;58.83;100951.94;5036343;28;20522;-66
2023/06/12 01:51:33;;;;;;;5.40;4.13;;;;;;;17.57;58.69;100947.63;5037921;28;20040;-66
2023/06/12 01:54:00;;;;;;;6.03;4.45;;;;;;;17.55;58.83;100943.34;5033303;28;20673;-66
2023/06/12 01:56:27;;;;;;;6.10;4.20;;;;;;;17.53;59.09;100942.56;5036885;28;20175;-65
2023/06/12 01:58:53;;;;;;;6.07;4.85;;;;;;;17.52;58.62;100943.44;5036095;28;20336;-65
2023/06/12 02:01:18;;;;;;;7.53;4.82;;;;;;;17.49;58.94;100946.16;5036979;28;20051;-66
2023/06/12 02:03:45;;;;;;;6.70;4.47;;;;;;;17.45;59.37;100955.91;5040496;28;20719;-66
2023/06/12 02:06:20;;;;;;;6.18;5.03;;;;;;;17.43;59.05;100955.94;5035795;28;20131;-65
2023/06/12 02:08:45;;;;;;;6.78;4.72;;;;;;;17.39;59.38;100958.72;5040376;28;20114;-65
2023/06/12 02:11:10;;;;;;;7.00;4.97;;;;;;;17.39;59.77;100958.72;5036810;28;20049;-66
2023/06/12 02:13:36;;;;;;;9.70;5.30;;;;;;;17.36;59.90;100948.34;5039541;28;20037;-65
2023/06/12 02:16:06;;;;;;;8.55;4.75;;;;;;;17.33;59.81;100953.69;5035615;28;20042;-66
2023/06/12 02:18:32;;;;;;;6.80;5.10;;;;;;;17.30;60.03;100964.22;5037424;28;20037;-66
2023/06/12 02:20:57;;;;;;;6.40;5.50;;;;;;;17.25;60.21;100964.38;5038951;28;20037;-66
2023/06/12 02:23:22;;;;;;;7.22;4.72;;;;;;;17.23;60.71;100968.78;5034735;28;20037;-66
2023/06/12 02:25:48;;;;;;;6.95;5.15;;;;;;;17.20;60.93;100971.50;5037694;28;20128;-66
2023/06/12 02:28:13;;;;;;;7.35;5.05;;;;;;;17.18;61.14;100981.16;5035724;28;20119;-65
2023/06/12 02:30:39;;;;;;;8.25;4.88;;;;;;;17.16;61.53;100982.09;5040732;28;20040;-66
2023/06/12 02:33:09;;;;;;;7.28;4.80;;;;;;;17.16;61.33;100984.69;5041570;28;20045;-65
2023/06/12 02:35:35;;;;;;;7.05;4.82;;;;;;;17.14;61.41;100984.75;5037954;28;20037;-66
2023/06/12 02:38:01;;;;;;;12.02;4.93;;;;;;;17.13;61.81;100990.03;5036472;28;20175;-65
2023/06/12 02:40:26;;;;;;;7.07;4.93;;;;;;;17.09;62.45;100993.66;5019595;28;20429;-65
2023/06/12 02:42:51;;;;;;;7.82;5.82;;;;;;;17.05;62.26;100999.88;5037340;28;20063;-66
2023/06/12 02:45:17;;;;;;;9.25;5.60;;;;;;;17.02;62.12;100994.72;5032924;28;20044;-66
2023/06/12 02:47:42;;;;;;;10.43;5.45;;;;;;;16.97;61.98;100992.28;5032266;28;20052;-66
2023/06/12 02:50:08;;;;;;;7.43;5.60;;;;;;;16.94;62.30;100991.50;5038665;28;20123;-66
2023/06/12 02:52:33;;;;;;;6.88;4.50;;;;;;;16.91;62.26;100991.59;5031644;28;20041;-66
2023/06/12 02:54:59;;;;;;;6.90;5.05;;;;;;;16.89;62.08;100990.81;5037844;28;20036;-66
2023/06/12 02:57:24;;;;;;;7.28;5.45;;;;;;;16.86;62.35;100987.38;5037987;28;20037;-66
2023/06/12 02:59:50;;;;;;;8.40;5.70;;;;;;;16.86;62.14;100997.81;5038884;28;20122;-66
2023/06/12 03:02:15;;;;;;;7.38;5.50;;;;;;;16.83;62.56;101003.13;5021363;28;20053;-66
2023/06/12 03:04:40;;;;;;;7.63;5.38;;;;;;;16.83;62.67;101004.88;5034187;28;20845;-66
2023/06/12 03:07:06;;;;;;;7.32;4.85;;;;;;;16.80;62.74;101005.81;5033912;28;20474;-66
2023/06/12 03:09:34;;;;;;;10.05;5.63;;;;;;;16.76;63.14;101001.59;5029883;28;20144;-65
2023/06/12 03:12:01;;;;;;;9.90;6.20;;;;;;;16.75;63.96;101006.84;5038865;28;20041;-66
2023/06/12 03:14:27;;;;;;;7.30;5.28;;;;;;;16.73;64.21;101009.50;5034483;28;20103;-66
2023/06/12 03:16:53;;;;;;;8.93;5.15;;;;;;;16.72;64.15;101013.00;5035466;28;20037;-66
2023/06/12 03:19:18;;;;;;;8.18;5.90;;;;;;;16.71;64.14;101007.84;5035721;28;20050;-65
2023/06/12 03:21:44;;;;;;;8.65;5.72;;;;;;;16.69;64.19;101007.88;5038144;28;20517;-62
2023/06/12 03:24:10;;;;;;;5.93;5.32;;;;;;;16.68;64.27;101000.09;5037521;28;20033;-66
2023/06/12 03:26:36;;;;;;;6.15;5.32;;;;;;;16.68;64.08;101007.94;5035271;28;20029;-66
2023/06/12 03:29:01;;;;;;;6.95;5.00;;;;;;;16.66;64.03;101002.75;5036050;28;20048;-66
2023/06/12 03:31:28;;;;;;;8.55;5.53;;;;;;;16.66;64.19;101002.75;5034783;28;20032;-66
2023/06/12 03:33:56;;;;;;;7.45;5.22;;;;;;;16.65;64.33;100992.38;5035206;28;20391;-66
2023/06/12 03:36:25;;;;;;;7.53;4.72;;;;;;;16.66;63.85;100989.69;5033531;28;20041;-66
2023/06/12 03:38:51;;;;;;;9.15;5.78;;;;;;;16.69;63.44;100989.59;5037215;28;20045;-66
2023/06/12 03:41:20;;;;;;;7.35;5.75;;;;;;;16.72;63.32;100986.91;5036408;28;20056;-66
2023/06/12 03:43:45;;;;;;;8.95;5.15;;;;;;;16.74;62.92;100979.88;5035742;28;20634;-63
2023/06/12 03:46:11;;;;;;;6.15;5.15;;;;;;;16.75;62.97;100976.38;5036382;28;20029;-63
2023/06/12 03:48:36;;;;;;;6.80;5.15;;;;;;;16.77;62.64;100969.38;5035140;28;20049;-62
2023/06/12 03:51:02;;;;;;;6.53;5.32;;;;;;;16.80;62.54;100963.22;5038099;28;20039;-62
2023/06/12 03:53:27;;;;;;;7.93;5.72;;;;;;;16.82;62.47;100964.88;5036503;28;20047;-62
2023/06/12 03:55:52;;;;;;;9.73;5.50;;;;;;;16.86;62.19;100966.47;5037226;28;20037;-62
2023/06/12 03:58:18;;;;;;;8.73;5.18;;;;;;;16.90;61.56;100964.63;5040397;28;20502;-63
2023/06/12 04:00:47;;;;;;;7.90;5.90;;;;;;;16.92;61.55;100962.81;5021452;28;20036;-62
2023/06/12 04:03:17;;;;;;;7.30;4.90;;;;;;;16.91;61.57;100963.75;5038119;28;20118;-62
2023/06/12 04:05:44;;;;;;;10.50;6.05;;;;;;;16.97;61.52;100965.31;5033941;28;20037;-62
2023/06/12 04:08:09;;;;;;;7.90;5.28;;;;;;;17.01;61.53;100967.75;5035857;28;20628;-62
2023/06/12 04:10:35;;;;;;;9.05;5.78;;;;;;;17.02;61.29;100969.47;5040580;28;20037;-62
2023/06/12 04:13:00;;;;;;;9.70;4.90;;;;;;;17.04;61.30;100967.66;5038815;28;20047;-62
2023/06/12 04:15:26;;;;;;;7.82;5.78;;;;;;;17.07;60.90;100971.94;5020296;28;20406;-66
2023/06/12 04:17:52;;;;;;;12.15;5.68;;;;;;;17.18;60.77;100964.63;5032942;28;20033;-66
2023/06/12 04:20:18;;;;;;;8.15;5.50;;;;;;;17.27;60.17;100959.97;5037712;28;20083;-66
2023/06/12 04:22:47;;;;;;;7.97;5.63;;;;;;;17.33;60.36;100959.72;5017742;28;20135;-66
2023/06/12 04:25:13;;;;;;;8.45;5.55;;;;;;;17.37;59.88;100957.88;5038257;28;20041;-65
2023/06/12 04:27:40;;;;;;;8.43;5.60;;;;;;;17.40;59.97;100950.81;5041611;28;20043;-66
2023/06/12 04:30:06;;;;;;;7.10;5.10;;;;;;;17.49;60.18;100954.88;5037571;28;20052;-66
2023/06/12 04:32:32;;;;;;;13.25;5.40;;;;;;;17.62;59.89;100950.09;5034046;28;20516;-65
2023/06/12 04:34:58;;;;;;;6.70;5.43;;;;;;;17.75;59.50;100943.53;5038155;28;20071;-66
2023/06/12 04:37:23;;;;;;;8.63;5.72;;;;;;;17.91;59.00;100937.72;5037045;28;20104;-66
2023/06/12 04:39:50;;;;;;;6.95;5.38;;;;;;;18.00;58.83;100936.53;5038305;28;20108;-62
2023/06/12 04:42:16;;;;;;;11.25;5.88;;;;;;;18.04;57.37;100906.75;5041590;28;20041;-62
2023/06/12 04:44:42;;;;;;;7.60;5.07;;;;;;;18.16;58.14;100921.16;5032892;28;20163;-62
2023/06/12 04:47:10;;;;;;;8.30;5.30;;;;;;;18.26;57.62;100920.75;5043183;28;20044;-66
2023/06/12 04:49:37;;;;;;;8.32;5.50;;;;;;;18.41;57.10;100925.41;5040819;28;20051;-66
2023/06/12 04:52:04;;;;;;;7.78;5.13;;;;;;;18.53;57.41;100917.09;5038195;28;20033;-66
2023/06/12 04:54:35;;;;;;;7.63;5.72;;;;;;;18.67;57.50;100919.16;5038176;28;20059;-66
2023/06/12 04:57:12;;;;;;;8.50;5.35;;;;;;;18.70;57.31;100913.78;5036092;28;20037;-63
2023/06/12 04:59:38;;;;;;;10.25;6.10;;;;;;;18.66;57.22;100919.22;5037238;28;20033;-62
2023/06/12 05:02:06;;;;;;;10.70;6.22;;;;;;;18.69;57.22;100922.59;5034539;28;20048;-63
2023/06/12 05:04:32;;;;;;;8.88;5.53;;;;;;;18.64;57.22;100926.28;5036661;28;20060;-62
2023/06/12 05:06:59;;;;;;;13.63;6.03;;;;;;;18.66;57.98;100934.94;5026276;28;20499;-65
2023/06/12 05:09:24;;;;;;;12.88;6.05;;;;;;;18.69;57.67;100926.97;5025470;28;20041;-65
2023/06/12 05:11:50;;;;;;;7.13;5.75;;;;;;;18.72;57.78;100927.69;5025131;28;20041;-62
2023/06/12 05:14:15;;;;;;;10.60;6.45;;;;;;;18.78;57.42;100929.22;5025903;28;20100;-62
2023/06/12 05:16:40;;;;;;;10.48;5.75;;;;;;;18.84;57.57;100934.22;5033343;28;20045;-62
2023/06/12 05:19:06;;;;;;;11.40;6.45;;;;;;;18.82;57.48;100931.66;5021653;28;20512;-65
2023/06/12 05:21:31;;;;;;;8.07;6.00;;;;;;;18.86;57.58;100932.41;5034234;28;20505;-62
2023/06/12 05:23:58;;;;;;;7.90;6.18;;;;;;;18.89;58.03;100948.00;5035390;28;20447;-62
2023/06/12 05:26:23;;;;;;;9.88;6.03;;;;;;;18.90;58.53;100955.81;5030773;28;20037;-62
2023/06/12 05:28:48;;;;;;;13.52;5.97;;;;;;;18.93;58.39;100947.84;5033521;28;20047;-62
2023/06/12 05:31:14;;;;;;;9.30;5.75;;;;;;;18.99;58.33;100947.59;5034378;28;20584;-64
2023/06/12 05:33:39;;;;;;;8.05;5.72;;;;;;;19.02;58.74;100950.09;5015630;28;20029;-63
2023/06/12 05:36:07;;;;;;;9.52;5.57;;;;;;;19.10;58.77;100952.41;5030192;28;20274;-63
2023/06/12 05:38:32;;;;;;;8.25;6.32;;;;;;;19.12;58.04;100936.63;5033762;28;20037;-66
2023/06/12 05:40:58;;;;;;;9.88;6.43;;;;;;;19.20;58.45;100948.50;5037587;28;20065;-65
2023/06/12 05:43:23;;;;;;;12.43;5.88;;;;;;;19.28;58.56;100949.03;5036018;28;20398;-65
2023/06/12 05:45:49;;;;;;;12.60;6.03;;;;;;;19.34;57.93;100940.91;5035334;28;20033;-65
2023/06/12 05:48:14;;;;;;;11.52;5.75;;;;;;;19.41;57.42;100936.28;5032141;28;20465;-65
2023/06/12 05:50:40;;;;;;;9.48;5.78;;;;;;;19.46;57.37;100935.16;5040070;28;20063;-62
2023/06/12 05:53:06;;;;;;;10.20;5.47;;;;;;;19.62;56.37;100922.25;5035338;28;20058;-62
2023/06/12 05:55:31;;;;;;;11.85;6.60;;;;;;;19.74;56.13;100919.06;5037961;28;20045;-62
2023/06/12 05:57:57;;;;;;;12.13;6.03;;;;;;;19.90;54.85;100899.16;5033950;28;20025;-61
2023/06/12 06:00:23;;;;;;;7.28;5.97;;;;;;;20.05;54.18;100892.38;5036025;28;20041;-62
2023/06/12 06:02:48;;;;;;;9.30;5.72;;;;;;;20.22;53.83;100891.59;5031252;28;20049;-62
2023/06/12 06:05:14;;;;;;;9.20;5.90;;;;;;;20.31;53.59;100899.06;5030862;28;20398;-66
2023/06/12 06:07:39;;;;;;;7.63;6.47;;;;;;;20.38;54.25;100911.84;5036713;28;20049;-65
2023/06/12 06:10:05;;;;;;;10.50;6.22;;;;;;;20.45;53.61;100905.38;5037796;28;20112;-65
2023/06/12 06:12:31;;;;;;;10.32;5.97;;;;;;;20.56;53.31;100897.84;5038664;28;20051;-62
2023/06/12 06:14:56;;;;;;;9.10;5.10;;;;;;;20.64;52.67;100897.47;5032998;28;20029;-62
2023/06/12 06:17:22;;;;;;;9.25;5.22;;;;;;;20.70;53.48;100908.59;5036087;28;20044;-62
2023/06/12 06:19:47;;;;;;;7.10;5.18;;;;;;;20.78;53.43;100908.19;5034955;28;20124;-63
2023/06/12 06:22:15;;;;;;;6.25;5.22;;;;;;;20.89;53.51;100916.44;5034515;28;20036;-63
2023/06/12 06:24:41;;;;;;;9.45;6.07;;;;;;;21.02;51.92;100896.50;5027093;28;20036;-63
2023/06/12 06:27:08;;;;;;;10.55;5.75;;;;;;;21.13;52.11;100891.59;5015278;28;20037;-64
2023/06/12 06:29:33;;;;;;;8.77;5.63;;;;;;;21.23;51.75;100889.31;5021785;28;20710;-65
2023/06/12 06:31:59;;;;;;;9.48;5.82;;;;;;;21.26;51.90;100889.16;5036517;28;20041;-66
2023/06/12 06:34:25;;;;;;;9.90;6.47;;;;;;;21.34;52.13;100902.81;5030091;28;20041;-66
2023/06/12 06:36:50;;;;;;;11.07;6.18;;;;;;;21.43;52.37;100912.88;5031986;28;20033;-66
2023/06/12 06:39:16;;;;;;;8.00;6.10;;;;;;;21.50;52.35;100906.34;5029279;28;20106;-67
2023/06/12 06:41:41;;;;;;;10.30;5.93;;;;;;;21.55;52.24;100906.97;5031791;28;20041;-66
2023/06/12 06:44:07;;;;;;;9.73;5.72;;;;;;;21.64;52.20;100910.94;5035325;28;20509;-65
2023/06/12 06:46:32;;;;;;;12.10;5.03;;;;;;;21.77;52.52;100917.25;5031157;28;20143;-63
2023/06/12 06:48:57;;;;;;;11.95;6.22;;;;;;;21.87;51.28;100902.69;5028768;28;20032;-63
2023/06/12 06:51:23;;;;;;;12.63;6.22;;;;;;;22.00;51.87;100910.78;5037851;28;20059;-63
2023/06/12 06:53:48;;;;;;;8.63;5.85;;;;;;;22.16;50.97;100898.50;5038246;28;20047;-64
2023/06/12 06:56:13;;;;;;;9.85;5.60;;;;;;;22.23;51.19;100886.72;5026855;28;20131;-63
2023/06/12 06:58:39;;;;;;;9.27;5.20;;;;;;;22.42;51.45;100905.88;5026246;28;20052;-63
2023/06/12 07:01:05;;;;;;;7.63;5.10;;;;;;;22.53;51.25;100898.22;5023783;28;20040;-63
2023/06/12 07:03:31;;;;;;;6.80;5.60;;;;;;;22.68;51.06;100894.72;5025017;28;20041;-64
2023/06/12 07:05:56;;;;;;;8.02;5.47;;;;;;;22.75;50.40;100887.31;5022703;28;20663;-63
2023/06/12 07:08:21;;;;;;;9.32;6.18;;;;;;;22.86;50.24;100895.47;5028101;28;20128;-63
2023/06/12 07:10:47;;;;;;;9.40;5.90;;;;;;;22.94;49.25;100882.72;5024478;28;20433;-64
2023/06/12 07:13:12;;;;;;;8.93;5.43;;;;;;;23.21;49.18;100881.16;5007682;28;20102;-63
2023/06/12 07:15:38;;;;;;;9.45;5.13;;;;;;;23.49;47.84;100876.84;5027296;28;20039;-63
2023/06/12 07:18:03;;;;;;;13.13;5.55;;;;;;;23.68;48.45;100880.97;5030046;28;22045;-65
2023/06/12 07:20:28;;;;;;;8.02;5.22;;;;;;;23.86;47.31;100866.63;5030358;28;20055;-64
2023/06/12 07:22:54;;;;;;;7.35;5.25;;;;;;;23.96;46.83;100861.66;5035075;28;20036;-64
2023/06/12 07:25:19;;;;;;;9.18;5.00;;;;;;;24.01;47.38;100864.00;5030716;28;20410;-64
2023/06/12 07:27:45;;;;;;;9.20;5.43;;;;;;;24.08;47.91;100883.78;5027955;28;20033;-63
2023/06/12 07:30:11;;;;;;;9.27;5.43;;;;;;;24.13;47.42;100871.19;5026455;28;20092;-64
2023/06/12 07:32:36;;;;;;;6.22;5.60;;;;;;;24.34;46.59;100860.06;5028082;28;20045;-64
2023/06/12 07:35:02;;;;;;;7.90;5.75;;;;;;;24.53;45.81;100854.47;5010728;28;20106;-64
2023/06/12 07:37:29;;;;;;;9.45;5.72;;;;;;;24.61;46.13;100862.75;5015407;28;20532;-65
2023/06/12 07:39:54;;;;;;;9.43;4.85;;;;;;;24.88;45.20;100846.91;5016170;28;20024;-66
2023/06/12 07:42:20;;;;;;;8.68;5.80;;;;;;;25.03;46.40;100864.41;5038751;28;20485;-64
2023/06/12 07:44:45;;;;;;;8.30;5.50;;;;;;;25.15;45.17;100854.78;5042808;28;20518;-65
2023/06/12 07:47:11;;;;;;;10.07;6.03;;;;;;;25.20;44.72;100847.41;5043887;28;20041;-65
2023/06/12 07:49:36;;;;;;;8.52;5.15;;;;;;;25.26;45.46;100865.53;5041818;28;20032;-65
2023/06/12 07:52:04;;;;;;;10.38;5.38;;;;;;;25.17;45.89;100869.66;5043844;28;20043;-64
2023/06/12 07:54:30;;;;;;;9.73;5.15;;;;;;;25.17;45.21;100858.22;5038481;28;20776;-64
2023/06/12 07:56:55;;;;;;;7.28;5.63;;;;;;;25.24;44.63;100856.81;5039232;28;20106;-67
2023/06/12 07:59:21;;;;;;;8.07;5.45;;;;;;;25.13;44.58;100856.72;5039247;28;20060;-66
2023/06/12 08:01:46;;;;;;;7.78;5.80;;;;;;;25.26;45.73;100873.47;5036337;28;20037;-65
2023/06/12 08:04:12;;;;;;;10.48;5.55;;;;;;;25.32;46.12;100865.13;5036017;28;20032;-65
2023/06/12 08:06:42;;;;;;;7.22;5.20;;;;;;;25.22;43.94;100846.34;5038008;28;20094;-65
2023/06/12 08:09:10;;;;;;;9.52;4.70;;;;;;;25.32;44.66;100849.22;5035811;28;20069;-65
2023/06/12 08:11:36;;;;;;;6.90;4.95;;;;;;;25.39;44.24;100848.69;5035291;28;20039;-64
2023/06/12 08:14:01;;;;;;;7.15;5.30;;;;;;;25.47;45.04;100856.97;5011301;28;20419;-65
2023/06/12 08:16:26;;;;;;;9.43;5.13;;;;;;;25.54;45.39;100857.41;5044811;28;20035;-65
2023/06/12 08:18:52;;;;;;;7.20;4.82;;;;;;;25.62;44.58;100848.00;5023127;28;20017;-65
2023/06/12 08:21:18;;;;;;;6.20;5.35;;;;;;;25.69;44.33;100842.28;5018801;28;20612;-66
2023/06/12 08:23:43;;;;;;;7.35;5.47;;;;;;;25.72;43.18;100836.75;5036506;28;20069;-67
2023/06/12 08:26:08;;;;;;;6.43;4.72;;;;;;;25.82;43.94;100841.31;5036457;28;20394;-67
2023/06/12 08:28:35;;;;;;;6.45;5.25;;;;;;;25.85;43.68;100840.25;5036918;28;20148;-66
2023/06/12 08:31:01;;;;;;;8.02;5.00;;;;;;;25.93;44.36;100852.00;5032668;28;20033;-67
2023/06/12 08:33:28;;;;;;;7.47;5.65;;;;;;;26.00;44.02;100844.47;5036230;28;20037;-67
2023/06/12 08:35:53;;;;;;;6.38;4.65;;;;;;;26.08;43.46;100824.41;5037998;28;20051;-66
2023/06/12 08:38:19;;;;;;;9.85;6.43;;;;;;;26.14;42.43;100820.50;5029025;28;20044;-67
2023/06/12 08:40:52;;;;;;;9.57;5.20;;;;;;;26.23;43.25;100822.50;5036031;28;20043;-67
2023/06/12 08:43:17;;;;;;;8.95;5.28;;;;;;;26.26;43.71;100835.53;5035255;28;20139;-66
2023/06/12 08:45:46;;;;;;;6.63;4.97;;;;;;;26.23;43.71;100827.81;5031931;28;20604;-67
2023/06/12 08:48:17;;;;;;;6.60;4.95;;;;;;;26.32;42.78;100832.44;5032870;28;20065;-67
2023/06/12 08:50:44;;;;;;;8.20;5.13;;;;;;;26.44;43.08;100828.03;5033856;28;20038;-67
2023/06/12 08:53:10;;;;;;;7.20;4.90;;;;;;;26.56;43.20;100832.44;5033172;28;20045;-67
2023/06/12 08:55:39;;;;;;;9.02;5.32;;;;;;;26.56;42.34;100808.59;5034780;28;20041;-66
2023/06/12 08:58:07;;;;;;;7.38;5.22;;;;;;;26.62;42.73;100818.75;5036626;28;20394;-66
2023/06/12 09:00:32;;;;;;;8.85;5.30;;;;;;;26.76;41.34;100802.66;5037242;28;20041;-66
2023/06/12 09:02:58;;;;;;;7.65;5.07;;;;;;;26.87;41.00;100800.06;5038679;28;20075;-66
2023/06/12 09:05:29;;;;;;;8.35;4.85;;;;;;;26.86;41.69;100813.44;5036044;28;20037;-66
2023/06/12 09:07:57;;;;;;;7.43;5.40;;;;;;;27.09;41.68;100816.06;5036244;28;20064;-66
2023/06/12 09:10:22;;;;;;;8.15;5.57;;;;;;;27.34;41.22;100807.06;5038865;28;20032;-66
2023/06/12 09:12:53;;;;;;;11.82;5.47;;;;;;;27.45;40.28;100799.13;5039647;28;20103;-66
2023/06/12 09:15:20;;;;;;;9.38;4.80;;;;;;;27.55;40.04;100801.94;5042734;28;20029;-67
2023/06/12 09:17:49;;;;;;;9.73;5.95;;;;;;;27.68;40.46;100806.16;5030748;28;20037;-65
2023/06/12 09:20:28;;;;;;;9.95;5.53;;;;;;;27.86;40.68;100814.47;5037008;28;20183;-65
2023/06/12 09:22:55;;;;;;;7.30;5.10;;;;;;;28.01;40.04;100802.63;5040216;28;20453;-67
2023/06/12 09:25:25;;;;;;;7.53;5.55;;;;;;;28.13;38.78;100798.16;5034314;28;20702;-66
2023/06/12 09:27:51;;;;;;;5.88;5.07;;;;;;;28.13;39.42;100809.66;5039444;28;20056;-64
2023/06/12 09:30:16;;;;;;;6.63;5.50;;;;;;;28.20;39.59;100807.34;5013902;28;20128;-64
2023/06/12 09:32:43;;;;;;;8.43;5.43;;;;;;;28.27;39.16;100809.38;5033601;28;20132;-64
2023/06/12 09:35:09;;;;;;;7.22;4.60;;;;;;;28.37;38.31;100801.50;5035469;28;20570;-64
2023/06/12 09:37:35;;;;;;;6.47;4.53;;;;;;;28.47;37.82;100794.44;5034287;28;20625;-64
2023/06/12 09:40:11;;;;;;;5.57;5.00;;;;;;;28.67;37.44;100790.13;5033624;28;20041;-64
2023/06/12 09:42:40;;;;;;;9.70;5.00;;;;;;;28.68;35.40;100781.19;5037328;28;20060;-68
2023/06/12 09:45:16;;;;;;;8.90;5.05;;;;;;;28.57;34.48;100775.91;5036368;28;20059;-67
2023/06/12 09:47:42;;;;;;;5.55;4.68;;;;;;;28.68;34.96;100776.69;5031579;28;20052;-67
2023/06/12 09:50:09;;;;;;;11.07;5.32;;;;;;;28.82;34.26;100773.78;5033262;28;20060;-67
2023/06/12 09:52:36;;;;;;;6.30;4.57;;;;;;;29.02;33.39;100773.91;5036568;28;20045;-66
2023/06/12 09:55:03;;;;;;;6.15;4.70;;;;;;;29.21;32.47;100769.53;5035976;28;20036;-64
2023/06/12 09:57:31;;;;;;;7.20;4.88;;;;;;;29.24;32.58;100773.78;5033551;28;20033;-64
2023/06/12 10:00:00;;;;;;;7.55;5.10;;;;;;;29.32;31.61;100772.13;5035092;28;20534;-65
2023/06/12 10:02:26;;;;;;;7.32;4.95;;;;;;;29.32;31.94;100776.59;5036026;28;20071;-64
2023/06/12 10:05:01;;;;;;;7.55;4.72;;;;;;;29.30;30.95;100766.06;5033028;28;20403;-64
2023/06/12 10:07:33;;;;;;;6.93;4.90;;;;;;;29.33;31.87;100781.78;5033602;28;20566;-64
2023/06/12 10:10:02;;;;;;;7.55;5.18;;;;;;;29.34;32.03;100782.66;5031123;28;20024;-63
2023/06/12 10:12:29;;;;;;;7.68;4.35;;;;;;;29.37;31.68;100785.91;5034685;28;20189;-64
2023/06/12 10:14:59;;;;;;;6.95;4.70;;;;;;;29.00;32.03;100789.16;5032053;28;20349;-65
2023/06/12 10:17:26;;;;;;;7.03;4.88;;;;;;;29.21;32.32;100793.47;5034610;28;20037;-64
2023/06/12 10:19:53;;;;;;;5.78;4.40;;;;;;;29.17;32.04;100785.91;5032127;28;20155;-64
2023/06/12 10:22:18;;;;;;;6.55;4.53;;;;;;;29.27;31.72;100778.84;5035497;28;20028;-66
2023/06/12 10:24:44;;;;;;;7.40;4.50;;;;;;;29.34;32.77;100802.16;5030710;28;20040;-66
2023/06/12 10:27:11;;;;;;;6.25;4.28;;;;;;;29.36;31.25;100780.72;5037052;28;20095;-66
2023/06/12 10:29:38;;;;;;;7.30;4.80;;;;;;;29.33;31.24;100783.63;5034693;28;20762;-67
2023/06/12 10:32:09;;;;;;;6.60;4.68;;;;;;;29.48;31.99;100792.97;5036760;28;20040;-67
2023/06/12 10:34:39;;;;;;;6.05;4.35;;;;;;;29.53;31.92;100784.59;5032321;28;20036;-67
2023/06/12 10:37:39;;;;;;;5.45;3.97;;;;;;;29.71;30.90;100767.84;5032405;28;20035;-67
2023/06/12 10:40:15;;;;;;;6.30;4.07;;;;;;;29.82;30.72;100772.22;5029466;28;20053;-66
2023/06/12 10:43:01;;;;;;;8.18;4.40;;;;;;;29.32;31.27;100777.44;5033191;28;20096;-67
2023/06/12 10:45:31;;;;;;;4.90;4.28;;;;;;;29.42;31.83;100786.34;5034430;28;20041;-67
2023/06/12 10:48:06;;;;;;;5.47;4.70;;;;;;;29.54;31.25;100771.13;5012343;28;20045;-66
2023/06/12 10:50:52;;;;;;;6.00;4.10;;;;;;;29.86;31.58;100768.31;5032712;28;20129;-67
2023/06/12 10:53:24;;;;;;;7.82;4.20;;;;;;;30.08;30.93;100759.25;5035884;28;20039;-65
2023/06/12 10:56:03;;;;;;;4.50;4.10;;;;;;;30.18;31.62;100760.13;5034034;28;20040;-65
2023/06/12 10:58:36;;;;;;;5.40;4.70;;;;;;;30.23;33.07;100772.06;5036769;28;20124;-64
2023/06/12 11:01:06;;;;;;;5.63;4.40;;;;;;;30.14;32.06;100769.38;5026692;28;20026;-65
2023/06/12 11:03:33;;;;;;;8.00;4.50;;;;;;;30.11;30.86;100761.66;5029937;28;20406;-64
2023/06/12 11:06:24;;;;;;;7.15;4.70;;;;;;;30.44;31.26;100756.78;5030156;28;20071;-64
2023/06/12 11:08:50;;;;;;;5.90;4.40;;;;;;;30.68;31.95;100768.88;5035983;28;20047;-65
2023/06/12 11:11:16;;;;;;;6.20;4.47;;;;;;;30.79;30.30;100745.56;5026132;28;20411;-64
2023/06/12 11:13:43;;;;;;;7.28;4.70;;;;;;;31.08;30.94;100749.00;5035458;28;20072;-64
2023/06/12 11:16:16;;;;;;;5.72;4.38;;;;;;;31.21;30.06;100756.75;5038509;28;20033;-64
2023/06/12 11:18:42;;;;;;;5.97;4.70;;;;;;;31.20;31.14;100759.56;5034344;28;20044;-66
2023/06/12 11:21:10;;;;;;;7.47;5.00;;;;;;;30.77;30.59;100749.34;5037043;28;20040;-67
2023/06/12 11:23:40;;;;;;;5.65;4.22;;;;;;;30.55;30.66;100757.66;5031140;28;20045;-65
2023/06/12 11:26:07;;;;;;;6.85;4.40;;;;;;;30.67;31.11;100768.03;5029013;28;20065;-64